Time;durP1;ratioP1;P1;durP2;ratioP2;P2;SDS_P1;SDS_P2;PMS_P1;PMS_P2;Temp;Humidity;BMP_temperature;BMP_pressure;BME280_temperature;BME280_humidity;BME280_pressure;Samples;Min_cycle;Max_cycle;Signal;HPM_P1;HPM_P2
2023/05/30 00:00:00;;;;;;;15.98;1.20;;;;;;;10.52;100.00;102152.59;5031697;28;20021;-51
2023/05/30 00:02:25;;;;;;;1.50;1.15;;;;;;;10.41;100.00;102154.50;5029408;28;20094;-52
2023/05/30 00:04:51;;;;;;;6.43;0.75;;;;;;;10.44;100.00;102159.50;5032382;28;20034;-51
2023/05/30 00:07:18;;;;;;;3.25;0.57;;;;;;;10.34;100.00;102164.00;5034067;28;20033;-51
2023/05/30 00:09:44;;;;;;;7.55;2.28;;;;;;;10.34;100.00;102161.34;5034712;28;20064;-50
2023/05/30 00:12:11;;;;;;;46.67;2.78;;;;;;;10.30;100.00;102162.66;5033272;28;20021;-51
2023/05/30 00:14:37;;;;;;;8.43;1.52;;;;;;;10.28;100.00;102154.00;5034160;28;20021;-50
2023/05/30 00:17:05;;;;;;;11.18;1.50;;;;;;;10.29;100.00;102160.16;5031959;28;20063;-53
2023/05/30 00:19:31;;;;;;;5.10;1.40;;;;;;;10.32;100.00;102159.84;5033879;28;20607;-54
2023/05/30 00:21:56;;;;;;;7.00;2.00;;;;;;;10.27;100.00;102165.56;5027138;28;20033;-52
2023/05/30 00:24:23;;;;;;;5.40;1.17;;;;;;;10.23;100.00;102164.19;5032525;28;20405;-53
2023/05/30 00:26:48;;;;;;;8.70;3.10;;;;;;;10.19;100.00;102168.94;5030318;28;20094;-52
2023/05/30 00:29:13;;;;;;;7.80;0.77;;;;;;;10.28;100.00;102164.63;5033635;28;20047;-52
2023/05/30 00:31:39;;;;;;;6.22;0.73;;;;;;;10.29;100.00;102162.78;5034959;28;20332;-55
2023/05/30 00:34:04;;;;;;;3.47;0.60;;;;;;;10.26;100.00;102170.03;5034069;28;20585;-51
2023/05/30 00:36:29;;;;;;;11.55;1.58;;;;;;;10.26;100.00;102164.72;5035208;28;20519;-52
2023/05/30 00:38:55;;;;;;;7.93;1.90;;;;;;;10.25;100.00;102167.53;5036490;28;20549;-53
2023/05/30 00:41:20;;;;;;;8.55;1.92;;;;;;;10.23;100.00;102180.09;5033961;28;20056;-53
2023/05/30 00:43:45;;;;;;;2.50;1.40;;;;;;;10.14;100.00;102171.19;5031840;28;20434;-54
2023/05/30 00:46:11;;;;;;;12.07;1.45;;;;;;;10.04;100.00;102176.56;5032993;28;20087;-53
2023/05/30 00:48:38;;;;;;;8.98;0.90;;;;;;;9.99;100.00;102172.66;5032366;28;20032;-50
2023/05/30 00:51:07;;;;;;;12.30;0.80;;;;;;;9.96;100.00;102172.94;5031219;28;20120;-55
2023/05/30 00:53:33;;;;;;;10.35;1.80;;;;;;;9.99;100.00;102178.81;5030245;28;20030;-54
2023/05/30 00:55:58;;;;;;;2.25;0.43;;;;;;;9.99;100.00;102172.66;5032390;28;20030;-53
2023/05/30 00:58:24;;;;;;;12.82;1.58;;;;;;;9.97;100.00;102169.34;5030926;28;20033;-50
2023/05/30 01:00:49;;;;;;;6.28;0.60;;;;;;;9.91;100.00;102170.72;5031321;28;20033;-55
2023/05/30 01:03:17;;;;;;;8.63;1.05;;;;;;;9.91;100.00;102170.72;5036321;28;20112;-53
2023/05/30 01:05:44;;;;;;;7.72;0.93;;;;;;;9.91;100.00;102177.84;5016566;28;20617;-54
2023/05/30 01:08:10;;;;;;;5.07;1.08;;;;;;;9.88;100.00;102180.78;5034251;28;20052;-53
2023/05/30 01:10:37;;;;;;;5.15;1.50;;;;;;;9.81;100.00;102175.25;5036568;28;20025;-56
2023/05/30 01:13:27;;;;;;;10.32;1.58;;;;;;;9.83;100.00;102175.91;5038205;28;20044;-49
2023/05/30 01:16:06;;;;;;;5.38;1.80;;;;;;;9.73;100.00;102175.13;5039372;28;20318;-54
2023/05/30 01:18:39;;;;;;;11.75;2.05;;;;;;;9.69;100.00;102171.94;5037664;28;20064;-52
2023/05/30 01:21:15;;;;;;;12.63;0.65;;;;;;;9.72;100.00;102176.94;5043308;28;20443;-58
2023/05/30 01:24:19;;;;;;;11.02;2.58;;;;;;;9.72;100.00;102170.81;5035503;28;20167;-54
2023/05/30 01:27:03;;;;;;;4.13;0.88;;;;;;;9.65;100.00;102173.19;5039251;28;20401;-56
2023/05/30 01:29:31;;;;;;;8.40;0.50;;;;;;;9.61;100.00;102175.31;5035534;28;20494;-53
2023/05/30 01:31:57;;;;;;;7.32;0.90;;;;;;;9.64;100.00;102168.06;5038853;28;20167;-50
2023/05/30 01:34:23;;;;;;;8.02;1.85;;;;;;;9.64;100.00;102168.88;5047448;28;20039;-53
2023/05/30 01:36:48;;;;;;;6.38;0.93;;;;;;;9.61;100.00;102177.13;5044276;28;20029;-55
2023/05/30 01:39:14;;;;;;;6.43;1.65;;;;;;;9.55;100.00;102175.03;5044177;28;20071;-55
2023/05/30 01:41:58;;;;;;;7.75;1.60;;;;;;;9.63;100.00;102166.38;5043357;28;20028;-54
2023/05/30 01:44:31;;;;;;;6.45;1.02;;;;;;;9.63;100.00;102176.97;5043319;28;20117;-55
2023/05/30 01:47:03;;;;;;;4.40;0.98;;;;;;;9.66;100.00;102172.22;5038806;28;20060;-58
2023/05/30 01:49:55;;;;;;;10.23;2.63;;;;;;;9.60;100.00;102178.06;5037956;28;20486;-51
2023/05/30 01:52:24;;;;;;;3.90;0.70;;;;;;;9.62;100.00;102176.13;5036863;28;20128;-55
2023/05/30 01:54:54;;;;;;;4.38;1.20;;;;;;;9.60;100.00;102172.78;5033099;28;20047;-52
2023/05/30 01:57:20;;;;;;;7.00;2.03;;;;;;;9.73;100.00;102178.63;5036809;28;20134;-52
2023/05/30 01:59:47;;;;;;;10.07;2.75;;;;;;;9.71;100.00;102167.34;5039380;28;20578;-54
2023/05/30 02:02:12;;;;;;;6.95;2.17;;;;;;;9.71;100.00;102164.69;5042868;28;20447;-55
2023/05/30 02:04:38;;;;;;;6.47;0.70;;;;;;;9.76;100.00;102169.56;5045430;28;20552;-54
2023/05/30 02:07:04;;;;;;;6.90;1.75;;;;;;;9.76;100.00;102170.38;5039623;28;20029;-50
2023/05/30 02:09:30;;;;;;;2.35;0.60;;;;;;;9.72;100.00;102176.09;5033122;28;20107;-52
2023/05/30 02:11:55;;;;;;;4.38;1.08;;;;;;;9.85;100.00;102171.31;5030322;28;20064;-53
2023/05/30 02:14:22;;;;;;;12.20;2.97;;;;;;;9.86;100.00;102174.81;5037750;28;20029;-50
2023/05/30 02:16:47;;;;;;;11.45;1.77;;;;;;;9.87;100.00;102177.31;5040619;28;20067;-57
2023/05/30 02:19:14;;;;;;;11.15;1.55;;;;;;;9.83;100.00;102163.53;5036180;28;20025;-55
2023/05/30 02:21:40;;;;;;;11.27;1.10;;;;;;;9.86;100.00;102170.38;5039625;28;20193;-53
2023/05/30 02:24:06;;;;;;;6.70;1.42;;;;;;;9.93;100.00;102162.66;5035787;28;20047;-55
2023/05/30 02:26:34;;;;;;;7.10;1.40;;;;;;;9.95;100.00;102160.69;5044865;28;20722;-53
2023/05/30 02:28:59;;;;;;;6.50;1.83;;;;;;;9.95;100.00;102163.34;5042150;28;20039;-54
2023/05/30 02:31:24;;;;;;;6.55;1.35;;;;;;;9.99;100.00;102159.41;5042047;28;20033;-57
2023/05/30 02:33:50;;;;;;;4.57;2.15;;;;;;;10.01;100.00;102160.09;5040905;28;20041;-53
2023/05/30 02:36:15;;;;;;;3.70;1.42;;;;;;;10.05;100.00;102157.00;5038696;28;20478;-56
2023/05/30 02:38:40;;;;;;;9.20;1.60;;;;;;;9.99;100.00;102165.56;5037643;28;20029;-51
2023/05/30 02:41:06;;;;;;;8.77;2.25;;;;;;;10.01;100.00;102165.41;5036535;28;20111;-54
2023/05/30 02:43:31;;;;;;;15.73;2.15;;;;;;;10.02;100.00;102172.38;5038107;28;20025;-57
2023/05/30 02:45:56;;;;;;;14.93;1.50;;;;;;;10.09;100.00;102164.66;5029926;28;20033;-59
2023/05/30 02:48:22;;;;;;;10.27;1.17;;;;;;;10.15;100.00;102164.09;5042222;28;20748;-54
2023/05/30 02:50:47;;;;;;;10.23;1.58;;;;;;;10.13;100.00;102164.22;5031275;28;20128;-54
2023/05/30 02:53:12;;;;;;;8.48;1.50;;;;;;;10.07;100.00;102170.13;5036345;28;20029;-55
2023/05/30 02:55:42;;;;;;;9.05;1.15;;;;;;;10.08;100.00;102169.13;5038881;28;20094;-51
2023/05/30 02:58:08;;;;;;;4.30;1.15;;;;;;;10.12;100.00;102180.28;5039710;28;20041;-55
2023/05/30 03:00:34;;;;;;;8.93;1.23;;;;;;;10.10;100.00;102175.13;5040397;28;20060;-56
2023/05/30 03:02:59;;;;;;;6.13;1.08;;;;;;;10.15;100.00;102172.88;5038427;28;20058;-52
2023/05/30 03:05:25;;;;;;;7.50;2.58;;;;;;;10.14;100.00;102173.84;5044188;28;20053;-56
2023/05/30 03:07:51;;;;;;;7.55;1.80;;;;;;;10.17;100.00;102176.22;5040123;28;20485;-54
2023/05/30 03:10:17;;;;;;;7.18;0.65;;;;;;;10.20;100.00;102183.06;5037023;28;20045;-56
2023/05/30 03:12:42;;;;;;;7.65;0.68;;;;;;;10.24;100.00;102177.28;5040374;28;20033;-53
2023/05/30 03:15:09;;;;;;;3.38;0.47;;;;;;;10.25;100.00;102183.44;5036382;28;20382;-57
2023/05/30 03:17:35;;;;;;;4.72;1.67;;;;;;;10.26;100.00;102182.44;5034172;28;20033;-55
2023/05/30 03:20:00;;;;;;;1.15;0.98;;;;;;;10.28;100.00;102182.34;5038481;28;20036;-57
2023/05/30 03:22:25;;;;;;;9.40;0.95;;;;;;;10.36;100.00;102185.91;5037524;28;20025;-54
2023/05/30 03:24:51;;;;;;;6.30;0.80;;;;;;;10.40;100.00;102184.66;5036128;28;20051;-54
2023/05/30 03:27:16;;;;;;;9.38;0.82;;;;;;;10.48;100.00;102192.69;5037856;28;20405;-52
2023/05/30 03:29:41;;;;;;;3.08;0.52;;;;;;;10.48;100.00;102190.03;5036115;28;20441;-57
2023/05/30 03:32:07;;;;;;;5.80;0.98;;;;;;;10.45;100.00;102187.69;5032114;28;20037;-56
2023/05/30 03:34:33;;;;;;;7.00;1.17;;;;;;;10.47;100.00;102192.84;5028927;28;20024;-56
2023/05/30 03:36:59;;;;;;;13.00;2.63;;;;;;;10.51;100.00;102196.88;5039686;28;20045;-59
2023/05/30 03:39:24;;;;;;;5.93;2.03;;;;;;;10.60;100.00;102192.47;5039482;28;20545;-53
2023/05/30 03:41:50;;;;;;;5.55;1.08;;;;;;;10.59;100.00;102189.00;5040224;28;20033;-58
2023/05/30 03:44:15;;;;;;;2.55;0.60;;;;;;;10.53;100.00;102189.56;5030368;28;20075;-55
2023/05/30 03:46:40;;;;;;;10.48;1.30;;;;;;;10.50;100.00;102186.41;5039535;28;20033;-54
2023/05/30 03:49:06;;;;;;;11.02;1.75;;;;;;;10.48;100.00;102184.75;5040149;28;20470;-55
2023/05/30 03:51:33;;;;;;;7.93;2.20;;;;;;;10.46;100.00;102189.34;5035454;28;20036;-53
2023/05/30 03:53:58;;;;;;;9.23;0.95;;;;;;;10.53;100.00;102192.22;5040204;28;20041;-55
2023/05/30 03:56:23;;;;;;;7.07;1.10;;;;;;;10.54;100.00;102188.59;5042193;28;20414;-52
2023/05/30 03:58:49;;;;;;;16.27;2.20;;;;;;;10.54;100.00;102185.97;5036514;28;20033;-52
2023/05/30 04:01:15;;;;;;;8.35;1.55;;;;;;;10.60;100.00;102189.81;5032862;28;20116;-53
2023/05/30 04:03:42;;;;;;;3.25;0.85;;;;;;;10.65;100.00;102182.25;5040484;28;20151;-56
2023/05/30 04:06:08;;;;;;;4.25;1.83;;;;;;;10.67;100.00;102190.91;5039713;28;20461;-52
2023/05/30 04:08:33;;;;;;;6.47;1.85;;;;;;;10.74;100.00;102191.13;5013288;28;20033;-55
2023/05/30 04:10:58;;;;;;;6.45;1.55;;;;;;;10.77;100.00;102189.00;5033147;28;20025;-52
2023/05/30 04:13:24;;;;;;;17.63;1.40;;;;;;;10.78;100.00;102193.31;5041046;28;20193;-52
2023/05/30 04:15:49;;;;;;;7.53;0.90;;;;;;;10.78;100.00;102185.38;5040088;28;20638;-53
2023/05/30 04:18:15;;;;;;;1.50;0.57;;;;;;;10.90;100.00;102189.47;5041628;28;20043;-55
2023/05/30 04:20:40;;;;;;;8.00;2.83;;;;;;;10.95;100.00;102180.25;5033358;28;20045;-54
2023/05/30 04:23:06;;;;;;;14.75;1.13;;;;;;;10.91;100.00;102177.03;5037989;28;20125;-54
2023/05/30 04:25:32;;;;;;;3.72;0.43;;;;;;;10.90;100.00;102178.03;5038571;28;20025;-52
2023/05/30 04:27:58;;;;;;;2.42;0.75;;;;;;;10.93;100.00;102183.03;5039144;28;20382;-55
2023/05/30 04:30:23;;;;;;;6.65;2.30;;;;;;;10.89;100.00;102192.25;5038282;28;20462;-57
2023/05/30 04:32:49;;;;;;;12.98;1.33;;;;;;;10.97;100.00;102187.06;5042039;28;20036;-53
2023/05/30 04:35:14;;;;;;;10.82;2.05;;;;;;;10.88;100.00;102190.59;5040270;28;20525;-54
2023/05/30 04:37:43;;;;;;;9.38;1.48;;;;;;;11.07;100.00;102190.44;5036692;28;20033;-54
2023/05/30 04:40:12;;;;;;;5.85;1.00;;;;;;;11.15;100.00;102189.69;5037787;28;20067;-56
2023/05/30 04:42:40;;;;;;;3.75;1.55;;;;;;;11.20;100.00;102187.41;5016041;28;20030;-58
2023/05/30 04:45:06;;;;;;;4.32;1.65;;;;;;;11.22;100.00;102187.25;5037442;28;20029;-52
2023/05/30 04:47:31;;;;;;;3.83;1.00;;;;;;;11.28;100.00;102191.94;5034702;28;20029;-52
2023/05/30 04:50:00;;;;;;;4.85;0.80;;;;;;;11.22;100.00;102177.47;5044557;28;20048;-50
2023/05/30 04:52:26;;;;;;;14.85;2.08;;;;;;;11.21;100.00;102185.59;5040060;28;20459;-53
2023/05/30 04:54:52;;;;;;;7.28;1.00;;;;;;;11.29;100.00;102186.50;5038499;28;20029;-53
2023/05/30 04:57:18;;;;;;;4.57;0.75;;;;;;;11.25;100.00;102190.44;5041782;28;20143;-55
2023/05/30 04:59:43;;;;;;;6.68;1.33;;;;;;;11.26;100.00;102188.63;5044065;28;20129;-53
2023/05/30 05:02:09;;;;;;;4.00;1.17;;;;;;;11.31;100.00;102192.50;5038920;28;20112;-52
2023/05/30 05:04:34;;;;;;;6.15;2.05;;;;;;;11.38;100.00;102194.50;5031728;28;20060;-59
2023/05/30 05:07:00;;;;;;;7.35;1.33;;;;;;;11.45;100.00;102192.91;5042541;28;20032;-52
2023/05/30 05:09:26;;;;;;;9.95;2.00;;;;;;;11.54;100.00;102192.81;5037815;28;20029;-55
2023/05/30 05:11:52;;;;;;;7.25;0.63;;;;;;;11.50;100.00;102196.75;5041119;28;20466;-53
2023/05/30 05:14:17;;;;;;;3.28;1.48;;;;;;;11.61;100.00;102198.31;5035731;28;20052;-58
2023/05/30 05:16:43;;;;;;;8.93;0.68;;;;;;;11.63;100.00;102201.66;5036219;28;20028;-52
2023/05/30 05:19:08;;;;;;;5.40;1.45;;;;;;;11.64;100.00;102202.50;5039797;28;20391;-53
2023/05/30 05:21:33;;;;;;;4.70;1.00;;;;;;;11.75;100.00;102212.88;5040957;28;20461;-52
2023/05/30 05:23:59;;;;;;;7.03;1.85;;;;;;;11.83;100.00;102210.28;5021823;28;20059;-50
2023/05/30 05:26:24;;;;;;;6.82;0.82;;;;;;;11.88;100.00;102215.16;5043963;28;20385;-52
2023/05/30 05:28:50;;;;;;;8.88;1.20;;;;;;;11.90;100.00;102215.81;5040998;28;20078;-50
2023/05/30 05:31:16;;;;;;;5.07;1.60;;;;;;;11.99;100.00;102215.72;5039199;28;20128;-52
2023/05/30 05:33:42;;;;;;;4.25;1.88;;;;;;;12.03;100.00;102213.59;5043661;28;20393;-56
2023/05/30 05:36:07;;;;;;;3.50;1.23;;;;;;;11.99;100.00;102218.38;5038630;28;20496;-53
2023/05/30 05:38:33;;;;;;;9.00;0.90;;;;;;;11.95;100.00;102216.16;5036598;28;20226;-55
2023/05/30 05:40:58;;;;;;;6.90;1.15;;;;;;;12.14;100.00;102221.28;5037439;28;20024;-51
2023/05/30 05:43:23;;;;;;;8.05;0.82;;;;;;;12.31;100.00;102224.00;5035298;28;20397;-51
2023/05/30 05:45:51;;;;;;;3.00;0.52;;;;;;;12.23;100.00;102230.94;5040807;28;20033;-54
2023/05/30 05:48:16;;;;;;;6.15;0.98;;;;;;;12.26;100.00;102237.75;5042971;28;20037;-54
2023/05/30 05:50:41;;;;;;;6.32;1.60;;;;;;;12.21;100.00;102232.94;5042501;28;20687;-53
2023/05/30 05:53:07;;;;;;;6.35;1.17;;;;;;;12.40;100.00;102228.38;5038293;28;20398;-51
2023/05/30 05:55:32;;;;;;;7.88;2.17;;;;;;;12.43;100.00;102236.84;5035985;28;20025;-51
2023/05/30 05:57:57;;;;;;;3.17;1.27;;;;;;;12.55;100.00;102242.72;5034411;28;20063;-51
2023/05/30 06:00:23;;;;;;;11.70;1.30;;;;;;;12.49;100.00;102243.34;5035526;28;20087;-50
2023/05/30 06:02:48;;;;;;;4.32;0.90;;;;;;;12.47;100.00;102244.50;5035191;28;20079;-50
2023/05/30 06:05:14;;;;;;;2.42;1.13;;;;;;;12.33;100.00;102252.09;5041366;28;20029;-56
2023/05/30 06:07:39;;;;;;;4.30;0.60;;;;;;;12.32;100.00;102261.09;5024415;28;20032;-53
2023/05/30 06:10:06;;;;;;;11.13;1.90;;;;;;;12.42;100.00;102255.66;5042172;28;20367;-51
2023/05/30 06:12:31;;;;;;;2.22;1.13;;;;;;;12.55;100.00;102260.53;5031734;28;20029;-50
2023/05/30 06:14:56;;;;;;;6.50;0.93;;;;;;;12.53;100.00;102257.19;5038015;28;20458;-53
2023/05/30 06:17:21;;;;;;;5.38;1.80;;;;;;;12.62;100.00;102270.38;5037622;28;20466;-51
2023/05/30 06:19:50;;;;;;;6.20;1.80;;;;;;;12.60;100.00;102264.38;5033897;28;20512;-51
2023/05/30 06:22:15;;;;;;;4.28;1.33;;;;;;;12.71;100.00;102265.06;5034402;28;20371;-50
2023/05/30 06:24:40;;;;;;;3.63;1.10;;;;;;;12.64;100.00;102259.53;5037317;28;20076;-55
2023/05/30 06:27:06;;;;;;;12.23;1.88;;;;;;;12.52;100.00;102272.31;5038431;28;20072;-55
2023/05/30 06:29:33;;;;;;;9.27;1.08;;;;;;;12.54;100.00;102264.16;5037681;28;20906;-55
2023/05/30 06:31:59;;;;;;;7.57;1.85;;;;;;;12.57;100.00;102267.34;5038114;28;20208;-52
2023/05/30 06:34:24;;;;;;;3.47;0.63;;;;;;;12.56;100.00;102273.66;5037368;28;20892;-55
2023/05/30 06:36:50;;;;;;;2.53;0.68;;;;;;;12.82;100.00;102278.06;5035899;28;20025;-50
2023/05/30 06:39:15;;;;;;;6.10;0.88;;;;;;;12.98;100.00;102274.59;5040321;28;20032;-56
2023/05/30 06:41:44;;;;;;;4.80;0.93;;;;;;;13.02;100.00;102273.31;5036668;28;20377;-57
2023/05/30 06:44:10;;;;;;;6.72;2.03;;;;;;;13.09;100.00;102269.00;5036083;28;20051;-56
2023/05/30 06:46:36;;;;;;;11.18;1.10;;;;;;;13.01;100.00;102266.28;5040584;28;20029;-55
2023/05/30 06:49:01;;;;;;;2.90;0.88;;;;;;;13.09;100.00;102269.00;5038727;28;20078;-57
2023/05/30 06:51:27;;;;;;;7.30;1.52;;;;;;;13.35;100.00;102268.88;5041945;28;20048;-56
2023/05/30 06:53:52;;;;;;;6.35;0.88;;;;;;;13.36;100.00;102265.22;5048996;28;20063;-52
2023/05/30 06:56:17;;;;;;;6.03;1.10;;;;;;;13.12;100.00;102281.16;5046892;28;20090;-55
2023/05/30 06:58:43;;;;;;;9.00;3.60;;;;;;;13.06;100.00;102279.94;5037391;28;20033;-59
2023/05/30 07:01:09;;;;;;;7.40;1.17;;;;;;;13.17;100.00;102271.66;5036122;28;20075;-57
2023/05/30 07:03:34;;;;;;;10.07;0.88;;;;;;;13.39;100.00;102270.19;5029649;28;20421;-57
2023/05/30 07:06:00;;;;;;;10.18;0.80;;;;;;;13.53;100.00;102266.06;5032474;28;20544;-51
2023/05/30 07:08:25;;;;;;;5.63;0.90;;;;;;;13.63;100.00;102256.06;5033366;28;20041;-54
2023/05/30 07:10:51;;;;;;;6.00;0.90;;;;;;;13.87;100.00;102260.50;5033488;28;20039;-51
2023/05/30 07:13:16;;;;;;;4.43;0.93;;;;;;;13.81;100.00;102265.69;5036460;28;20471;-52
2023/05/30 07:15:42;;;;;;;3.95;1.25;;;;;;;13.81;100.00;102263.00;5036193;28;20025;-58
2023/05/30 07:18:07;;;;;;;12.52;2.03;;;;;;;13.89;100.00;102266.53;5030420;28;20034;-54
2023/05/30 07:20:33;;;;;;;6.35;0.55;;;;;;;14.08;100.00;102262.63;5043169;28;20040;-58
2023/05/30 07:22:58;;;;;;;6.88;1.30;;;;;;;14.45;100.00;102257.66;5037683;28;20072;-55
2023/05/30 07:25:23;;;;;;;4.15;1.27;;;;;;;14.71;100.00;102254.75;5032844;28;20024;-56
2023/05/30 07:27:49;;;;;;;5.68;1.83;;;;;;;14.69;100.00;102256.75;5033503;28;20036;-58
2023/05/30 07:30:14;;;;;;;6.80;0.73;;;;;;;14.28;100.00;102249.75;5034297;28;20116;-57
2023/05/30 07:32:40;;;;;;;4.20;1.20;;;;;;;13.21;100.00;102261.50;5036458;28;20032;-53
2023/05/30 07:35:05;;;;;;;4.72;0.35;;;;;;;13.08;100.00;102256.66;5040530;28;20048;-48
2023/05/30 07:37:31;;;;;;;5.20;0.98;;;;;;;14.38;100.00;102250.38;5035000;28;20647;-57
2023/05/30 07:39:56;;;;;;;9.80;0.93;;;;;;;14.67;100.00;102248.09;5040835;28;20108;-61
2023/05/30 07:42:22;;;;;;;4.78;1.00;;;;;;;14.76;100.00;102247.03;5032982;28;20416;-54
2023/05/30 07:44:47;;;;;;;7.88;1.08;;;;;;;14.72;100.00;102248.41;5037450;28;20394;-53
2023/05/30 07:47:12;;;;;;;7.25;0.65;;;;;;;13.48;100.00;102250.56;5039142;28;20028;-58
2023/05/30 07:49:37;;;;;;;7.55;2.20;;;;;;;13.55;100.00;102249.88;5034790;28;20060;-59
2023/05/30 07:52:03;;;;;;;5.57;1.45;;;;;;;14.53;100.00;102241.66;5040809;28;20069;-58
2023/05/30 07:54:28;;;;;;;4.82;1.13;;;;;;;14.52;100.00;102243.47;5041043;28;20565;-50
2023/05/30 07:56:54;;;;;;;5.22;0.85;;;;;;;13.75;100.00;102246.69;5036757;28;20414;-51
2023/05/30 07:59:19;;;;;;;5.10;1.52;;;;;;;14.16;100.00;102251.94;5039031;28;20060;-55
2023/05/30 08:01:45;;;;;;;2.35;0.63;;;;;;;14.21;100.00;102250.59;5035226;28;20464;-58
2023/05/30 08:04:10;;;;;;;6.28;1.95;;;;;;;14.12;100.00;102250.63;5035550;28;20444;-56
2023/05/30 08:06:36;;;;;;;2.58;0.90;;;;;;;14.12;100.00;102245.28;5030608;28;20079;-59
2023/05/30 08:09:01;;;;;;;5.38;0.57;;;;;;;14.11;100.00;102242.78;5040908;28;20558;-60
2023/05/30 08:11:27;;;;;;;2.47;1.17;;;;;;;14.22;100.00;102249.59;5037737;28;20091;-52
2023/05/30 08:13:52;;;;;;;2.33;1.73;;;;;;;14.51;100.00;102252.50;5018774;28;20029;-56
2023/05/30 08:16:18;;;;;;;10.48;1.42;;;;;;;15.23;100.00;102251.41;5034323;28;20044;-51
2023/05/30 08:18:45;;;;;;;5.18;1.85;;;;;;;15.54;100.00;102237.13;5035525;28;20123;-53
2023/05/30 08:21:11;;;;;;;5.75;0.85;;;;;;;15.79;100.00;102232.41;5034794;28;20055;-61
2023/05/30 08:23:36;;;;;;;2.10;1.35;;;;;;;15.87;100.00;102230.47;5032572;28;20498;-58
2023/05/30 08:26:02;;;;;;;8.65;2.30;;;;;;;15.44;100.00;102240.06;5033120;28;20021;-60
2023/05/30 08:28:28;;;;;;;9.75;2.58;;;;;;;15.39;100.00;102248.63;5040298;28;20033;-62
2023/05/30 08:30:53;;;;;;;16.25;1.80;;;;;;;15.53;100.00;102240.81;5038714;28;20039;-62
2023/05/30 08:33:19;;;;;;;8.63;1.10;;;;;;;15.96;100.00;102227.72;5040998;28;20115;-50
2023/05/30 08:35:46;;;;;;;10.48;1.25;;;;;;;16.48;100.00;102235.59;5036319;28;20025;-59
2023/05/30 08:38:12;;;;;;;5.20;1.77;;;;;;;16.72;100.00;102226.41;5038536;28;20111;-59
2023/05/30 08:40:45;;;;;;;17.02;1.95;;;;;;;16.84;100.00;102216.06;5036840;28;20025;-59
2023/05/30 08:43:11;;;;;;;9.38;1.98;;;;;;;16.33;100.00;102240.97;5042341;28;20035;-52
2023/05/30 08:45:37;;;;;;;6.70;1.17;;;;;;;15.87;100.00;102233.13;5042410;28;20029;-54
2023/05/30 08:48:05;;;;;;;11.30;1.60;;;;;;;15.80;100.00;102232.22;5044499;28;20503;-58
2023/05/30 08:50:33;;;;;;;10.27;1.50;;;;;;;16.27;100.00;102230.19;5038541;28;20048;-57
2023/05/30 08:53:07;;;;;;;6.75;1.33;;;;;;;16.73;100.00;102225.41;5035693;28;20123;-63
2023/05/30 08:55:39;;;;;;;11.07;1.38;;;;;;;17.19;100.00;102225.06;5030834;28;20082;-58
2023/05/30 08:58:25;;;;;;;5.57;1.25;;;;;;;17.21;100.00;102232.91;5039335;28;20082;-54
2023/05/30 09:00:52;;;;;;;6.20;1.52;;;;;;;17.30;100.00;102230.94;5036291;28;20025;-58
2023/05/30 09:03:20;;;;;;;5.68;1.33;;;;;;;17.36;100.00;102225.59;5040238;28;20552;-56
2023/05/30 09:05:46;;;;;;;8.13;2.63;;;;;;;17.46;100.00;102216.41;5036284;28;20382;-60
2023/05/30 09:08:13;;;;;;;8.77;1.17;;;;;;;17.17;100.00;102213.72;5037588;28;20047;-54
2023/05/30 09:10:57;;;;;;;5.40;1.67;;;;;;;17.14;100.00;102211.41;5033525;28;20057;-59
2023/05/30 09:13:22;;;;;;;4.40;1.88;;;;;;;17.33;100.00;102215.28;5031223;28;20041;-56
2023/05/30 09:15:48;;;;;;;7.72;1.48;;;;;;;17.22;100.00;102215.81;5039662;28;20519;-51
2023/05/30 09:18:13;;;;;;;8.27;0.88;;;;;;;17.39;100.00;102213.66;5020365;28;20118;-53
2023/05/30 09:20:40;;;;;;;9.02;1.63;;;;;;;17.48;100.00;102215.19;5034645;28;20063;-57
2023/05/30 09:23:06;;;;;;;6.63;1.48;;;;;;;17.54;100.00;102208.22;5035179;28;20040;-58
2023/05/30 09:25:45;;;;;;;8.88;0.85;;;;;;;17.88;100.00;102210.13;5034572;28;20041;-60
2023/05/30 09:28:14;;;;;;;5.95;1.08;;;;;;;17.83;100.00;102204.50;5034274;28;20030;-60
2023/05/30 09:30:59;;;;;;;4.28;1.02;;;;;;;18.03;100.00;102204.63;5036050;28;20048;-63
2023/05/30 09:33:40;;;;;;;6.18;1.00;;;;;;;17.69;100.00;102205.44;5042629;28;20036;-58
2023/05/30 09:36:07;;;;;;;2.90;1.02;;;;;;;17.61;100.00;102207.25;5009766;28;20029;-53
2023/05/30 09:38:33;;;;;;;12.65;2.63;;;;;;;17.93;100.00;102207.66;5039804;28;20037;-54
2023/05/30 09:41:02;;;;;;;7.80;0.98;;;;;;;17.57;100.00;102205.16;5048139;28;20059;-57
2023/05/30 09:43:34;;;;;;;6.03;1.13;;;;;;;17.84;100.00;102204.34;5037495;28;20033;-56
2023/05/30 09:46:01;;;;;;;7.90;1.77;;;;;;;17.91;100.00;102196.31;5031040;28;20032;-58
2023/05/30 09:48:27;;;;;;;3.45;1.65;;;;;;;17.92;100.00;102205.22;5038886;28;20071;-55
2023/05/30 09:50:53;;;;;;;1.90;0.80;;;;;;;17.67;100.00;102203.78;5036653;28;20410;-56
2023/05/30 09:53:18;;;;;;;3.15;0.70;;;;;;;17.98;100.00;102205.22;5036938;28;20036;-55
2023/05/30 09:55:44;;;;;;;7.82;1.38;;;;;;;18.26;100.00;102202.47;5032062;28;20025;-58
2023/05/30 09:58:18;;;;;;;5.82;1.38;;;;;;;18.51;100.00;102212.69;5034856;28;20398;-55
2023/05/30 10:00:51;;;;;;;4.57;0.80;;;;;;;18.54;100.00;102201.53;5036758;28;20029;-54
2023/05/30 10:03:19;;;;;;;8.00;1.20;;;;;;;18.71;100.00;102208.19;5025391;28;20025;-63
2023/05/30 10:05:44;;;;;;;10.75;2.00;;;;;;;18.96;100.00;102197.72;5038839;28;20036;-55
2023/05/30 10:08:10;;;;;;;3.40;1.30;;;;;;;18.98;100.00;102194.84;5035381;28;20039;-56
2023/05/30 10:10:35;;;;;;;5.43;1.13;;;;;;;19.11;100.00;102192.16;5039268;28;20025;-52
2023/05/30 10:13:01;;;;;;;5.85;1.10;;;;;;;19.60;100.00;102192.75;5035570;28;20108;-58
2023/05/30 10:15:27;;;;;;;3.20;0.77;;;;;;;19.81;99.23;102191.72;5037806;28;20066;-61
2023/05/30 10:18:05;;;;;;;8.85;0.93;;;;;;;19.13;97.45;102197.34;5036058;28;20164;-51
2023/05/30 10:20:31;;;;;;;4.28;0.75;;;;;;;18.95;100.00;102188.00;5034959;28;20057;-51
2023/05/30 10:22:58;;;;;;;9.18;0.88;;;;;;;19.06;99.95;102194.63;5040572;28;20116;-54
2023/05/30 10:25:27;;;;;;;4.90;1.13;;;;;;;19.55;100.00;102184.47;5038162;28;20037;-53
2023/05/30 10:27:56;;;;;;;3.35;0.77;;;;;;;19.38;96.29;102186.75;5034227;28;20036;-54
2023/05/30 10:30:26;;;;;;;5.60;1.23;;;;;;;19.44;97.53;102183.25;5034509;28;20056;-51
2023/05/30 10:33:12;;;;;;;3.05;1.42;;;;;;;19.56;93.85;102183.44;5037198;28;20040;-54
2023/05/30 10:35:37;;;;;;;7.05;1.77;;;;;;;19.58;96.58;102178.69;5035836;28;20402;-60
2023/05/30 10:38:05;;;;;;;4.15;1.08;;;;;;;19.80;94.95;102188.19;5041521;28;20041;-51
2023/05/30 10:40:44;;;;;;;10.27;1.00;;;;;;;19.75;94.39;102179.94;5030185;28;20494;-58
2023/05/30 10:43:25;;;;;;;2.30;0.57;;;;;;;20.01;96.02;102173.63;5016524;28;20299;-62
2023/05/30 10:46:20;;;;;;;7.43;1.15;;;;;;;19.94;92.17;102175.50;5031768;28;20059;-56
2023/05/30 10:49:01;;;;;;;4.90;1.40;;;;;;;19.41;90.57;102162.13;5038106;28;20376;-57
2023/05/30 10:51:27;;;;;;;7.20;0.73;;;;;;;19.17;95.13;102174.38;5035631;28;20056;-60
2023/05/30 10:53:52;;;;;;;6.22;1.27;;;;;;;19.83;95.19;102170.78;5033079;28;20037;-53
2023/05/30 10:56:40;;;;;;;4.97;1.25;;;;;;;20.25;94.03;102158.59;5035381;28;20128;-62
2023/05/30 10:59:14;;;;;;;3.28;1.20;;;;;;;20.11;91.40;102154.34;5032107;28;20072;-56
2023/05/30 11:01:39;;;;;;;7.43;1.42;;;;;;;20.13;93.21;102156.78;5036949;28;20100;-55
2023/05/30 11:04:07;;;;;;;7.32;0.90;;;;;;;20.29;93.34;102152.78;5031383;28;20047;-55
2023/05/30 11:06:40;;;;;;;3.78;1.30;;;;;;;19.87;96.95;102144.28;5037925;28;20108;-59
2023/05/30 11:09:11;;;;;;;3.55;0.50;;;;;;;20.40;94.44;102154.81;5040573;28;20294;-56
2023/05/30 11:11:41;;;;;;;5.57;1.77;;;;;;;20.49;94.17;102150.81;5035400;28;20037;-59
2023/05/30 11:14:08;;;;;;;7.85;0.85;;;;;;;20.80;93.30;102151.88;5033695;28;20029;-56
2023/05/30 11:16:54;;;;;;;5.38;0.73;;;;;;;21.11;91.53;102145.63;5027743;28;20486;-56